Time;durP1;ratioP1;P1;durP2;ratioP2;P2;SDS_P1;SDS_P2;PMS_P1;PMS_P2;Temp;Humidity;BMP_temperature;BMP_pressure;BME280_temperature;BME280_humidity;BME280_pressure;Samples;Min_cycle;Max_cycle;Signal;HPM_P1;HPM_P2
2022/12/20 00:01:48;;;;;;;1.60;1.20;;;10.70;98.20;;;;;;5010561;28;20483;-74
2022/12/20 00:04:15;;;;;;;1.63;1.20;;;10.70;98.20;;;;;;5030531;28;20463;-73
2022/12/20 00:06:42;;;;;;;1.60;1.20;;;10.70;98.20;;;;;;5013960;28;20553;-74
2022/12/20 00:09:11;;;;;;;1.60;1.10;;;10.70;98.20;;;;;;5029134;28;20464;-74
2022/12/20 00:11:39;;;;;;;1.63;1.20;;;10.70;98.20;;;;;;5014503;28;20510;-73
2022/12/20 00:14:07;;;;;;;1.90;1.37;;;10.70;98.20;;;;;;5030286;28;20520;-74
2022/12/20 00:16:35;;;;;;;1.60;1.20;;;10.70;98.20;;;;;;5022857;28;20489;-73
2022/12/20 00:19:05;;;;;;;1.70;1.30;;;10.70;98.20;;;;;;5028730;28;20842;-74
2022/12/20 00:21:34;;;;;;;1.63;1.20;;;10.70;98.20;;;;;;5022118;28;20489;-74
2022/12/20 00:24:01;;;;;;;1.60;1.20;;;10.80;98.20;;;;;;5030188;28;20506;-74
2022/12/20 00:26:30;;;;;;;1.60;1.10;;;10.80;98.20;;;;;;5022200;28;21042;-74
2022/12/20 00:29:06;;;;;;;1.60;1.30;;;10.80;98.20;;;;;;5023367;28;20467;-74
2022/12/20 00:31:34;;;;;;;1.60;1.10;;;10.80;98.20;;;;;;5009870;28;20887;-74
2022/12/20 00:34:01;;;;;;;1.63;1.10;;;10.90;98.20;;;;;;5028876;28;20964;-73
2022/12/20 00:36:31;;;;;;;1.60;1.30;;;10.90;98.20;;;;;;5012094;28;20487;-74
2022/12/20 00:38:59;;;;;;;1.60;1.20;;;10.80;98.20;;;;;;5034466;28;20460;-74
2022/12/20 00:41:28;;;;;;;1.60;1.10;;;10.80;98.20;;;;;;5017549;28;20497;-74
2022/12/20 00:43:56;;;;;;;1.60;1.20;;;10.80;98.20;;;;;;5029036;28;20841;-74
2022/12/20 00:46:23;;;;;;;1.60;1.10;;;10.70;98.20;;;;;;5017590;28;20878;-74
2022/12/20 00:48:50;;;;;;;1.60;1.10;;;10.70;98.20;;;;;;5027000;28;20463;-74
2022/12/20 00:51:20;;;;;;;1.60;1.20;;;10.70;98.20;;;;;;5022161;28;20544;-73
2022/12/20 00:53:49;;;;;;;1.60;1.20;;;10.70;98.20;;;;;;5027236;28;20462;-74
2022/12/20 00:56:16;;;;;;;1.70;1.30;;;10.70;98.20;;;;;;5022140;28;20482;-74
2022/12/20 00:58:43;;;;;;;1.70;1.57;;;10.70;98.20;;;;;;5026952;28;20480;-74
2022/12/20 01:01:17;;;;;;;1.60;1.00;;;10.70;98.20;;;;;;5011736;28;20490;-73
2022/12/20 01:03:44;;;;;;;1.60;1.20;;;10.70;98.20;;;;;;5021925;28;20460;-74
2022/12/20 01:06:11;;;;;;;1.60;1.20;;;10.70;98.20;;;;;;5015536;28;21129;-74
2022/12/20 01:08:39;;;;;;;1.60;1.20;;;10.70;98.20;;;;;;5032868;28;20467;-74
2022/12/20 01:11:09;;;;;;;1.60;1.10;;;10.70;98.20;;;;;;5015511;28;21050;-74
2022/12/20 01:13:39;;;;;;;1.60;1.20;;;10.80;98.20;;;;;;5029578;28;20487;-74
2022/12/20 01:16:08;;;;;;;1.60;1.20;;;10.80;98.20;;;;;;5020976;28;21029;-75
2022/12/20 01:18:35;;;;;;;1.80;1.30;;;10.80;98.20;;;;;;5013310;28;20502;-74
2022/12/20 01:21:03;;;;;;;1.60;1.20;;;10.80;98.20;;;;;;5010663;28;21059;-74
2022/12/20 01:23:30;;;;;;;1.60;1.10;;;10.80;98.20;;;;;;5030696;28;20463;-74
2022/12/20 01:25:59;;;;;;;1.60;1.10;;;10.80;98.20;;;;;;5019460;28;20838;-75
2022/12/20 01:28:28;;;;;;;1.60;1.17;;;10.80;98.20;;;;;;5028674;28;20471;-74
2022/12/20 01:30:55;;;;;;;1.60;1.10;;;10.90;98.20;;;;;;5018679;28;20483;-75
2022/12/20 01:33:22;;;;;;;1.60;1.10;;;10.90;98.20;;;;;;5031304;28;20837;-74
2022/12/20 01:35:57;;;;;;;1.60;1.20;;;10.90;98.20;;;;;;5014509;28;20993;-74
2022/12/20 01:38:24;;;;;;;1.60;1.10;;;10.90;98.20;;;;;;5028702;28;20470;-75
2022/12/20 01:40:52;;;;;;;1.60;1.10;;;11.00;98.20;;;;;;5007830;28;20480;-74
2022/12/20 01:43:19;;;;;;;1.70;1.30;;;10.90;98.20;;;;;;5031389;28;20735;-74
2022/12/20 01:45:48;;;;;;;1.60;1.10;;;10.90;98.20;;;;;;5018898;28;20467;-74
2022/12/20 01:48:18;;;;;;;1.70;1.30;;;11.00;98.20;;;;;;5029679;28;20470;-74
2022/12/20 01:50:46;;;;;;;1.60;1.10;;;11.00;98.20;;;;;;5024284;28;20464;-74
2022/12/20 01:53:14;;;;;;;1.60;1.03;;;11.00;98.20;;;;;;5000169;28;20483;-76
2022/12/20 01:55:41;;;;;;;1.60;1.10;;;11.00;98.20;;;;;;5029121;28;20487;-75
2022/12/20 01:58:10;;;;;;;1.60;1.00;;;11.00;98.20;;;;;;5020968;28;20877;-77
2022/12/20 02:00:38;;;;;;;1.60;1.10;;;11.00;98.20;;;;;;5028544;28;20490;-76
2022/12/20 02:03:09;;;;;;;1.63;1.20;;;10.90;98.20;;;;;;5021475;28;20483;-76
2022/12/20 02:05:38;;;;;;;1.60;1.20;;;10.90;98.20;;;;;;5027241;28;20474;-75
2022/12/20 02:08:07;;;;;;;1.60;1.10;;;11.00;98.20;;;;;;5023888;28;20506;-75
2022/12/20 02:10:44;;;;;;;1.60;1.10;;;11.00;98.20;;;;;;5027195;28;20976;-75
2022/12/20 02:13:21;;;;;;;1.60;1.17;;;11.00;98.20;;;;;;5020535;28;20494;-76
2022/12/20 02:15:54;;;;;;;1.60;1.20;;;11.00;98.20;;;;;;5020771;28;20479;-76
2022/12/20 02:18:29;;;;;;;1.60;1.10;;;11.00;98.20;;;;;;5029210;28;20471;-75
2022/12/20 02:21:34;;;;;;;1.60;1.17;;;11.00;98.20;;;;;;5001943;28;20478;-75
2022/12/20 02:24:47;;;;;;;1.63;1.20;;;11.00;98.20;;;;;;5007500;28;20471;-74
2022/12/20 02:27:42;;;;;;;1.60;1.10;;;11.10;98.20;;;;;;5015907;28;20925;-76
2022/12/20 02:30:14;;;;;;;1.67;1.20;;;11.10;98.20;;;;;;5016619;28;20471;-75
2022/12/20 02:32:46;;;;;;;1.60;1.20;;;11.10;98.20;;;;;;5018222;28;20491;-74
2022/12/20 02:35:15;;;;;;;1.60;1.30;;;11.20;98.20;;;;;;5022089;28;20456;-76
2022/12/20 02:37:53;;;;;;;1.60;1.10;;;11.20;98.20;;;;;;5025306;28;20488;-75
2022/12/20 02:40:24;;;;;;;1.60;1.13;;;11.20;98.20;;;;;;5011408;28;20456;-76
2022/12/20 02:42:55;;;;;;;1.60;1.10;;;11.20;98.20;;;;;;5019664;28;20548;-75
2022/12/20 02:45:26;;;;;;;1.60;1.10;;;11.20;98.20;;;;;;5023121;28;20451;-76
2022/12/20 02:47:57;;;;;;;1.60;1.10;;;11.20;98.20;;;;;;5006365;28;20502;-76
2022/12/20 02:50:28;;;;;;;1.60;1.10;;;11.20;98.20;;;;;;5010055;28;20859;-76
2022/12/20 02:52:56;;;;;;;1.60;1.20;;;11.20;98.20;;;;;;5011233;28;20685;-76
2022/12/20 02:55:31;;;;;;;1.60;1.10;;;11.20;98.20;;;;;;5022062;28;20459;-77
2022/12/20 02:58:02;;;;;;;1.67;1.20;;;11.20;98.20;;;;;;5011707;28;20487;-75
2022/12/20 03:00:36;;;;;;;1.60;1.23;;;11.30;98.20;;;;;;5022588;28;20466;-76
2022/12/20 03:03:23;;;;;;;1.60;1.20;;;11.30;98.20;;;;;;5009484;28;20479;-77
2022/12/20 03:05:52;;;;;;;1.60;1.10;;;11.30;98.20;;;;;;5011600;28;20463;-76
2022/12/20 03:08:20;;;;;;;1.60;1.20;;;11.20;98.20;;;;;;5024008;28;21181;-76
2022/12/20 03:10:47;;;;;;;1.60;1.10;;;11.20;98.20;;;;;;5015547;28;20459;-76
2022/12/20 03:13:15;;;;;;;1.60;1.10;;;11.20;98.20;;;;;;5033751;28;20474;-75
2022/12/20 03:15:43;;;;;;;1.60;1.10;;;11.20;98.20;;;;;;5022517;28;20514;-75
2022/12/20 03:18:10;;;;;;;1.60;1.20;;;11.20;98.20;;;;;;5018423;28;20487;-75
2022/12/20 03:20:37;;;;;;;1.60;1.20;;;11.10;98.20;;;;;;5024860;28;20553;-75
2022/12/20 03:23:04;;;;;;;1.60;1.10;;;11.10;98.20;;;;;;5015418;28;20491;-74
2022/12/20 03:25:31;;;;;;;1.60;1.10;;;11.10;98.20;;;;;;5026901;28;20459;-76
2022/12/20 03:27:58;;;;;;;1.60;1.10;;;11.10;98.20;;;;;;5021776;28;20489;-76
2022/12/20 03:30:25;;;;;;;1.60;1.10;;;11.10;98.20;;;;;;5029476;28;20466;-77
2022/12/20 03:32:54;;;;;;;1.60;1.10;;;11.10;98.20;;;;;;5044654;22;20605;-75
2022/12/20 03:35:20;;;;;;;1.63;1.20;;;11.10;98.20;;;;;;5024979;28;20729;-76
2022/12/20 03:37:47;;;;;;;1.60;1.10;;;11.00;98.20;;;;;;5029787;28;20880;-76
2022/12/20 03:40:15;;;;;;;1.60;1.10;;;11.00;98.20;;;;;;5011123;28;20468;-76
2022/12/20 03:42:42;;;;;;;1.93;1.73;;;10.90;98.20;;;;;;5020709;28;20490;-75
2022/12/20 03:45:10;;;;;;;1.60;1.20;;;10.80;98.20;;;;;;4991571;28;20515;-77
2022/12/20 03:47:37;;;;;;;1.60;1.10;;;10.80;98.20;;;;;;5007381;28;20479;-75
2022/12/20 03:50:06;;;;;;;1.60;1.20;;;10.80;98.20;;;;;;4993881;28;20502;-76
2022/12/20 03:52:33;;;;;;;1.60;1.20;;;10.70;98.20;;;;;;5006563;28;20556;-77
2022/12/20 03:55:00;;;;;;;1.60;1.10;;;10.70;98.20;;;;;;4993301;28;20472;-76
2022/12/20 03:57:27;;;;;;;1.60;1.10;;;10.70;98.20;;;;;;5004449;28;20479;-75
2022/12/20 03:59:54;;;;;;;1.60;1.20;;;10.60;98.20;;;;;;4994773;28;20499;-75
2022/12/20 04:02:21;;;;;;;1.70;1.27;;;10.60;98.20;;;;;;5002291;28;21167;-75
2022/12/20 04:04:48;;;;;;;1.60;1.20;;;10.60;98.20;;;;;;4995181;28;20488;-76
2022/12/20 04:07:16;;;;;;;1.70;1.20;;;10.60;98.20;;;;;;5000499;28;20567;-76
2022/12/20 04:09:43;;;;;;;1.70;1.30;;;10.50;98.20;;;;;;4996481;28;20839;-77
2022/12/20 04:12:09;;;;;;;1.60;1.10;;;10.50;98.20;;;;;;4994454;28;20478;-75
2022/12/20 04:14:37;;;;;;;1.60;1.13;;;10.50;98.20;;;;;;4998745;28;20453;-76
2022/12/20 04:17:04;;;;;;;1.97;1.77;;;10.50;98.20;;;;;;4998006;28;20516;-76
2022/12/20 04:19:31;;;;;;;2.77;1.67;;;10.50;98.20;;;;;;5002540;28;20495;-75
2022/12/20 04:21:58;;;;;;;1.60;1.20;;;10.50;98.20;;;;;;4997707;28;20506;-77
2022/12/20 04:24:26;;;;;;;1.60;1.10;;;10.50;98.20;;;;;;5002812;28;20526;-77
2022/12/20 04:26:52;;;;;;;1.60;1.10;;;10.50;98.20;;;;;;4996502;28;20475;-76
2022/12/20 04:29:19;;;;;;;1.60;1.20;;;10.50;98.20;;;;;;5001072;28;20469;-77
2022/12/20 04:31:46;;;;;;;1.80;1.60;;;10.50;98.20;;;;;;4993083;28;20487;-77
2022/12/20 04:34:13;;;;;;;1.60;1.10;;;10.40;98.20;;;;;;5004290;28;20493;-76
2022/12/20 04:36:39;;;;;;;1.60;1.20;;;10.40;98.20;;;;;;4988690;28;20995;-76
2022/12/20 04:39:06;;;;;;;1.60;1.20;;;10.40;98.20;;;;;;5007480;28;20461;-77
2022/12/20 04:41:34;;;;;;;1.60;1.10;;;10.30;98.20;;;;;;4990065;28;20887;-76
2022/12/20 04:44:01;;;;;;;1.60;1.10;;;10.30;98.20;;;;;;5007929;28;20485;-75
2022/12/20 04:46:28;;;;;;;2.47;1.83;;;10.30;98.20;;;;;;4988243;28;20487;-75
2022/12/20 04:48:55;;;;;;;1.60;1.13;;;10.30;98.20;;;;;;5008355;28;20496;-79
2022/12/20 04:51:21;;;;;;;1.60;1.10;;;10.30;98.20;;;;;;4983081;28;20483;-78
2022/12/20 04:53:47;;;;;;;1.60;1.23;;;10.30;98.20;;;;;;5013615;28;20489;-78
2022/12/20 04:56:17;;;;;;;1.60;1.20;;;10.30;98.20;;;;;;4987029;28;21122;-76
2022/12/20 04:58:45;;;;;;;1.60;1.13;;;10.30;98.20;;;;;;5014201;28;20472;-79
2022/12/20 05:01:12;;;;;;;1.70;1.30;;;10.30;98.20;;;;;;4977944;28;20491;-76
2022/12/20 05:03:39;;;;;;;1.60;1.20;;;10.40;98.20;;;;;;5003119;28;20476;-76
2022/12/20 05:06:07;;;;;;;1.60;1.27;;;10.40;98.20;;;;;;4978750;28;20852;-77
2022/12/20 05:08:34;;;;;;;1.60;1.03;;;10.30;98.20;;;;;;4998604;28;20860;-77
2022/12/20 05:11:01;;;;;;;1.60;1.10;;;10.30;98.20;;;;;;4982156;28;20465;-77
2022/12/20 05:13:28;;;;;;;1.60;1.20;;;10.30;98.20;;;;;;5002457;28;20485;-78
2022/12/20 05:15:57;;;;;;;1.60;1.10;;;10.30;98.20;;;;;;4980827;28;20476;-77
2022/12/20 05:18:25;;;;;;;1.60;1.20;;;10.30;98.20;;;;;;5003342;28;20501;-80
2022/12/20 05:26:16;;;;;;;1.60;1.20;;;10.30;98.20;;;;;;4980644;28;20476;-77
2022/12/20 05:26:28;;;;;;;1.60;1.20;;;10.20;98.20;;;;;;4984119;28;20545;-77
2022/12/20 05:28:55;;;;;;;1.60;1.20;;;10.10;98.20;;;;;;5001426;28;20900;-81
2022/12/20 05:31:23;;;;;;;1.60;1.20;;;10.10;98.20;;;;;;4984359;28;20472;-78
2022/12/20 05:33:49;;;;;;;1.60;1.30;;;10.10;98.20;;;;;;5024778;28;20483;-78
2022/12/20 05:36:17;;;;;;;1.60;1.20;;;10.10;98.20;;;;;;5011340;28;20479;-75
2022/12/20 05:38:43;;;;;;;1.60;1.20;;;10.10;98.20;;;;;;5006252;28;20868;-78
2022/12/20 05:41:10;;;;;;;1.70;1.30;;;10.10;98.20;;;;;;5010392;28;20505;-80
2022/12/20 05:43:37;;;;;;;1.60;1.10;;;10.20;98.20;;;;;;5024889;28;20487;-80
2022/12/20 05:46:04;;;;;;;1.67;1.30;;;10.30;98.20;;;;;;5014902;28;20483;-76
2022/12/20 05:48:32;;;;;;;1.60;1.20;;;10.30;98.20;;;;;;5015758;28;20457;-77
2022/12/20 05:51:00;;;;;;;1.60;1.10;;;10.40;98.20;;;;;;4999862;28;20818;-77
2022/12/20 05:53:26;;;;;;;1.60;1.10;;;10.40;98.20;;;;;;5022081;28;20483;-78
2022/12/20 05:55:54;;;;;;;1.63;1.20;;;10.40;98.20;;;;;;5012595;28;21164;-76
2022/12/20 05:58:21;;;;;;;1.70;1.40;;;10.40;98.20;;;;;;5017744;28;21048;-76
2022/12/20 06:00:48;;;;;;;1.60;1.20;;;10.40;98.20;;;;;;5016046;28;20463;-78
2022/12/20 06:03:15;;;;;;;1.60;1.30;;;10.40;98.20;;;;;;5019972;28;20884;-79
2022/12/20 06:05:44;;;;;;;1.63;1.20;;;10.40;98.20;;;;;;5022566;28;20903;-79
2022/12/20 06:08:12;;;;;;;1.60;1.30;;;10.40;98.20;;;;;;4978193;28;20496;-77
2022/12/20 06:10:40;;;;;;;1.60;1.10;;;10.40;98.20;;;;;;5008837;28;20888;-80
2022/12/20 06:13:08;;;;;;;1.60;1.20;;;10.40;98.20;;;;;;5002136;28;20488;-78
2022/12/20 06:15:35;;;;;;;1.63;1.20;;;10.40;98.20;;;;;;5021966;28;20470;-78
2022/12/20 06:18:02;;;;;;;1.60;1.13;;;10.40;98.20;;;;;;5007841;28;20491;-76
2022/12/20 06:20:30;;;;;;;1.70;1.37;;;10.50;98.20;;;;;;5023055;28;20451;-78
2022/12/20 06:22:58;;;;;;;1.63;1.20;;;10.50;98.20;;;;;;5003420;28;20496;-77
2022/12/20 06:25:25;;;;;;;1.60;1.20;;;10.50;98.20;;;;;;5026451;28;20459;-77
2022/12/20 06:27:51;;;;;;;1.60;1.10;;;10.50;98.20;;;;;;5005315;28;20574;-77
2022/12/20 06:30:19;;;;;;;1.60;1.20;;;10.50;98.20;;;;;;5016741;28;20878;-76
2022/12/20 06:32:46;;;;;;;1.60;1.10;;;10.60;98.20;;;;;;5004203;28;20491;-77
2022/12/20 06:35:13;;;;;;;1.87;1.67;;;10.60;98.20;;;;;;5020758;28;20460;-76
2022/12/20 06:37:40;;;;;;;1.70;1.30;;;10.60;98.20;;;;;;4991457;28;20480;-76
2022/12/20 06:40:11;;;;;;;1.60;1.10;;;10.60;98.20;;;;;;5012877;28;20832;-78
2022/12/20 06:42:38;;;;;;;1.60;1.10;;;10.60;98.20;;;;;;4996188;28;20860;-77
2022/12/20 06:45:05;;;;;;;1.60;1.10;;;10.60;98.20;;;;;;5006722;28;20842;-76
2022/12/20 06:47:32;;;;;;;1.60;1.10;;;10.60;98.20;;;;;;4997649;28;20563;-76
2022/12/20 06:49:59;;;;;;;2.33;2.13;;;10.70;98.20;;;;;;5006150;28;20479;-76
2022/12/20 06:52:25;;;;;;;1.60;1.17;;;10.70;98.20;;;;;;4995659;28;21261;-76
2022/12/20 06:54:52;;;;;;;1.63;1.30;;;10.70;98.20;;;;;;5010194;28;20467;-76
2022/12/20 06:57:20;;;;;;;1.60;1.10;;;10.70;98.20;;;;;;5001100;28;20479;-76
2022/12/20 06:59:47;;;;;;;1.60;1.13;;;10.70;98.20;;;;;;5010100;28;20529;-75
2022/12/20 07:02:14;;;;;;;1.60;1.20;;;10.70;98.20;;;;;;4996101;28;20492;-76
2022/12/20 07:04:41;;;;;;;1.60;1.20;;;10.70;98.20;;;;;;5008367;28;20541;-76
2022/12/20 07:07:08;;;;;;;1.60;1.10;;;10.70;98.20;;;;;;4998087;28;20660;-75
2022/12/20 07:09:36;;;;;;;1.70;1.20;;;10.60;98.20;;;;;;5006909;28;20463;-76
2022/12/20 07:12:04;;;;;;;1.70;1.33;;;10.60;98.20;;;;;;4996661;28;20526;-76
2022/12/20 07:14:32;;;;;;;1.60;1.20;;;10.60;98.20;;;;;;5002455;28;20482;-75
2022/12/20 07:16:58;;;;;;;1.60;1.10;;;10.60;98.20;;;;;;4998413;28;20483;-76
2022/12/20 07:19:25;;;;;;;1.60;1.10;;;10.60;98.20;;;;;;5004205;28;20475;-76
2022/12/20 07:21:52;;;;;;;1.60;1.10;;;10.60;98.20;;;;;;4994487;28;20499;-76
2022/12/20 07:24:19;;;;;;;1.60;1.20;;;10.60;98.20;;;;;;5004082;28;20854;-78
2022/12/20 07:26:46;;;;;;;1.60;1.10;;;10.60;98.20;;;;;;4995535;28;21057;-77
2022/12/20 07:29:13;;;;;;;1.60;1.10;;;10.60;98.20;;;;;;5011138;28;20471;-77
2022/12/20 07:31:41;;;;;;;1.60;1.20;;;10.60;98.20;;;;;;4996826;28;20487;-78
2022/12/20 07:34:07;;;;;;;1.60;1.10;;;10.60;98.20;;;;;;4994683;28;20839;-79
2022/12/20 07:36:34;;;;;;;1.60;1.10;;;10.60;98.20;;;;;;4985053;28;20482;-81
2022/12/20 07:39:01;;;;;;;1.60;1.10;;;10.60;98.20;;;;;;5003666;28;20489;-78
2022/12/20 07:41:28;;;;;;;1.63;1.30;;;10.60;98.20;;;;;;4987010;28;20494;-77
2022/12/20 07:43:57;;;;;;;1.60;1.10;;;10.60;98.20;;;;;;5002699;28;20485;-78
2022/12/20 07:46:24;;;;;;;1.60;1.10;;;10.60;98.20;;;;;;4981803;28;20482;-76
2022/12/20 07:48:52;;;;;;;1.60;1.20;;;10.50;98.20;;;;;;5008306;28;20456;-79
2022/12/20 07:51:23;;;;;;;1.60;1.10;;;10.60;98.20;;;;;;4982322;28;21162;-76
2022/12/20 07:53:58;;;;;;;1.60;1.20;;;10.60;98.20;;;;;;4996242;28;20488;-77
2022/12/20 07:56:26;;;;;;;1.60;1.10;;;10.60;98.20;;;;;;4984338;28;20478;-76
2022/12/20 07:58:57;;;;;;;1.60;1.20;;;10.50;98.20;;;;;;5007344;28;20617;-78
2022/12/20 08:01:25;;;;;;;1.60;1.20;;;10.50;98.20;;;;;;4985041;28;20479;-74
2022/12/20 08:03:59;;;;;;;1.60;1.10;;;10.50;98.20;;;;;;5004952;28;20495;-76
2022/12/20 08:06:26;;;;;;;1.60;1.20;;;10.60;98.20;;;;;;4983242;28;20480;-77
2022/12/20 08:09:00;;;;;;;1.60;1.10;;;10.50;98.20;;;;;;5005604;28;20464;-78
2022/12/20 08:11:29;;;;;;;1.60;1.10;;;10.50;98.20;;;;;;4982348;28;20471;-77
2022/12/20 08:13:56;;;;;;;1.60;1.10;;;10.50;98.20;;;;;;4998796;28;20996;-76
2022/12/20 08:16:23;;;;;;;1.60;1.20;;;10.50;98.20;;;;;;4990959;28;20984;-79
2022/12/20 08:18:49;;;;;;;1.60;1.13;;;10.60;98.20;;;;;;5010619;28;20496;-79
2022/12/20 08:21:17;;;;;;;1.60;1.23;;;10.60;98.20;;;;;;4986547;28;20487;-75
2022/12/20 08:23:44;;;;;;;1.70;1.30;;;10.60;98.20;;;;;;5013818;28;20488;-77
2022/12/20 08:26:11;;;;;;;1.60;1.20;;;10.60;98.20;;;;;;4988294;28;20483;-75
2022/12/20 08:28:38;;;;;;;1.60;1.10;;;10.60;98.20;;;;;;5013395;28;20461;-77
2022/12/20 08:31:07;;;;;;;1.60;1.03;;;10.50;98.20;;;;;;4982377;28;20473;-78
2022/12/20 08:33:35;;;;;;;1.87;1.67;;;10.50;98.20;;;;;;5014260;28;20488;-78
2022/12/20 08:36:06;;;;;;;1.63;1.20;;;10.40;98.20;;;;;;5000356;28;20463;-79
2022/12/20 08:38:34;;;;;;;1.60;1.10;;;10.40;98.20;;;;;;5009938;28;20887;-76
2022/12/20 08:41:05;;;;;;;1.60;1.17;;;10.40;98.20;;;;;;4999043;28;20563;-75
2022/12/20 08:43:33;;;;;;;1.60;1.10;;;10.40;98.20;;;;;;5013529;28;20481;-77
2022/12/20 08:46:00;;;;;;;1.70;1.30;;;10.40;98.20;;;;;;5005263;28;20460;-76
2022/12/20 08:48:27;;;;;;;1.60;1.10;;;10.40;98.20;;;;;;5021708;28;20997;-77
2022/12/20 08:50:55;;;;;;;1.60;1.10;;;10.50;98.20;;;;;;5009460;28;20472;-77
2022/12/20 08:53:22;;;;;;;1.60;1.20;;;10.50;98.20;;;;;;5025172;28;20510;-78
2022/12/20 08:55:51;;;;;;;1.60;1.20;;;10.60;98.20;;;;;;5013909;28;20485;-76
2022/12/20 08:58:18;;;;;;;1.60;1.10;;;10.70;98.20;;;;;;5023977;28;20484;-74
2022/12/20 09:00:45;;;;;;;1.60;1.20;;;10.70;98.20;;;;;;5015641;28;20470;-73
2022/12/20 09:03:12;;;;;;;1.60;1.10;;;10.70;98.20;;;;;;5005648;28;20872;-73
2022/12/20 09:05:44;;;;;;;1.60;1.30;;;10.80;98.20;;;;;;5022012;28;20459;-73
2022/12/20 09:08:11;;;;;;;1.60;1.00;;;10.80;98.20;;;;;;5000858;28;20503;-75
2022/12/20 09:10:38;;;;;;;2.03;1.83;;;10.80;98.20;;;;;;5010022;28;20464;-75
2022/12/20 09:13:06;;;;;;;1.60;1.10;;;10.90;98.20;;;;;;5014713;28;20486;-74
2022/12/20 09:15:34;;;;;;;1.60;1.10;;;10.90;98.20;;;;;;5016322;28;20464;-75
2022/12/20 09:18:01;;;;;;;1.60;1.10;;;11.00;98.20;;;;;;5009630;28;20490;-79
2022/12/20 09:20:28;;;;;;;1.60;1.20;;;11.00;98.20;;;;;;5028988;28;20467;-75
2022/12/20 09:22:55;;;;;;;1.60;1.10;;;11.10;98.20;;;;;;5013391;28;20491;-74
2022/12/20 09:25:22;;;;;;;1.70;1.30;;;11.10;98.20;;;;;;5016419;28;20474;-75
2022/12/20 09:27:49;;;;;;;1.60;1.10;;;11.20;98.20;;;;;;5010726;28;20499;-78
2022/12/20 09:30:18;;;;;;;1.60;1.10;;;11.20;98.20;;;;;;5014858;28;20467;-76
2022/12/20 09:32:45;;;;;;;1.60;1.20;;;11.20;98.20;;;;;;5016118;28;21079;-76
2022/12/20 09:35:12;;;;;;;1.60;1.20;;;11.10;98.20;;;;;;5051069;22;20899;-74
2022/12/20 09:37:38;;;;;;;1.70;1.30;;;11.10;98.20;;;;;;5019209;28;20488;-75
2022/12/20 09:40:07;;;;;;;1.60;1.10;;;11.10;98.20;;;;;;5045901;28;20454;-75
2022/12/20 09:42:33;;;;;;;1.70;1.60;;;11.10;98.20;;;;;;5034997;28;20481;-74
2022/12/20 09:45:04;;;;;;;1.60;1.10;;;11.10;98.20;;;;;;5048640;28;20478;-74
2022/12/20 09:47:35;;;;;;;1.60;1.10;;;11.10;98.20;;;;;;5042072;28;20482;-74
2022/12/20 09:50:05;;;;;;;1.60;1.20;;;11.10;98.20;;;;;;5046753;28;20451;-75
2022/12/20 09:52:53;;;;;;;1.60;1.10;;;11.10;98.20;;;;;;5043681;28;20470;-74
2022/12/20 09:55:28;;;;;;;1.60;1.10;;;11.10;98.20;;;;;;5041403;28;20482;-75
2022/12/20 09:58:18;;;;;;;1.60;1.10;;;11.10;98.20;;;;;;5041167;28;20486;-75
2022/12/20 10:00:47;;;;;;;1.60;1.10;;;11.10;98.20;;;;;;5042295;28;20465;-76
2022/12/20 10:03:21;;;;;;;1.60;1.10;;;11.10;98.20;;;;;;5015870;28;20483;-75
2022/12/20 10:05:52;;;;;;;1.60;1.10;;;11.10;98.20;;;;;;5038155;28;20845;-74
2022/12/20 10:08:30;;;;;;;1.77;1.50;;;11.10;98.20;;;;;;5055226;28;20470;-74
2022/12/20 10:10:59;;;;;;;1.60;1.10;;;11.10;98.20;;;;;;5034739;28;20469;-75
2022/12/20 10:13:41;;;;;;;1.67;1.30;;;11.20;98.20;;;;;;5044415;28;20819;-74
2022/12/20 10:16:19;;;;;;;1.63;1.30;;;11.20;98.20;;;;;;5036348;28;20462;-74
2022/12/20 10:19:02;;;;;;;1.60;1.10;;;11.20;98.20;;;;;;5048266;28;20513;-75
2022/12/20 10:21:43;;;;;;;1.60;1.20;;;11.20;98.20;;;;;;5038616;28;21029;-75
2022/12/20 10:24:16;;;;;;;1.60;1.10;;;11.30;98.20;;;;;;5047127;28;20569;-73
2022/12/20 10:26:43;;;;;;;1.60;1.27;;;11.30;98.20;;;;;;5036181;28;20848;-74
2022/12/20 10:29:10;;;;;;;1.60;1.20;;;11.30;98.20;;;;;;5046366;28;20462;-73
2022/12/20 10:31:36;;;;;;;1.60;1.10;;;11.40;98.20;;;;;;5036217;28;20478;-71
2022/12/20 10:34:05;;;;;;;1.60;1.10;;;11.40;98.20;;;;;;5050184;28;20499;-71
2022/12/20 10:36:33;;;;;;;4.80;1.70;;;11.40;98.20;;;;;;5038307;28;20482;-72
2022/12/20 10:39:06;;;;;;;1.60;1.20;;;11.40;98.20;;;;;;5051205;28;20489;-72
2022/12/20 10:41:47;;;;;;;1.60;1.20;;;11.40;98.20;;;;;;5038450;28;20476;-73
2022/12/20 10:44:19;;;;;;;1.60;1.10;;;11.40;98.20;;;;;;5045983;28;20824;-73
2022/12/20 10:46:48;;;;;;;1.60;1.00;;;11.40;98.20;;;;;;5038349;28;20482;-73
2022/12/20 10:49:29;;;;;;;1.60;1.10;;;11.40;98.20;;;;;;5046644;28;20458;-73
2022/12/20 10:51:59;;;;;;;1.60;1.20;;;11.50;98.20;;;;;;5031946;28;20576;-72
2022/12/20 10:54:33;;;;;;;1.60;1.07;;;11.50;98.20;;;;;;5049645;28;20488;-72
2022/12/20 10:57:02;;;;;;;1.60;1.10;;;11.50;98.20;;;;;;5037995;28;20482;-72
2022/12/20 10:59:34;;;;;;;1.60;1.10;;;11.50;98.20;;;;;;5051507;28;20496;-72
2022/12/20 11:02:02;;;;;;;1.60;1.10;;;11.50;98.20;;;;;;5037081;28;20508;-72
2022/12/20 11:04:32;;;;;;;1.60;1.20;;;11.60;98.20;;;;;;5048157;28;20987;-72
2022/12/20 11:07:00;;;;;;;1.70;1.40;;;11.70;98.20;;;;;;5041574;28;20478;-72
2022/12/20 11:09:30;;;;;;;1.60;1.10;;;11.80;98.20;;;;;;5048329;28;20454;-71
2022/12/20 11:12:02;;;;;;;1.70;1.20;;;11.90;98.20;;;;;;5036951;28;21164;-72
2022/12/20 11:14:30;;;;;;;1.60;1.10;;;12.00;98.20;;;;;;5044578;28;21212;-72
2022/12/20 11:17:00;;;;;;;1.63;1.10;;;12.10;98.20;;;;;;5037624;28;20486;-71
2022/12/20 11:20:00;;;;;;;1.60;1.10;;;12.20;98.20;;;;;;5048292;28;20486;-71
2022/12/20 11:22:42;;;;;;;1.60;1.10;;;12.20;98.20;;;;;;5021949;28;20856;-71
2022/12/20 11:25:26;;;;;;;1.60;1.00;;;12.30;98.20;;;;;;5054453;28;20488;-71
2022/12/20 11:28:01;;;;;;;1.60;1.10;;;12.30;98.20;;;;;;5040983;28;20486;-71
2022/12/20 11:30:39;;;;;;;1.60;1.10;;;12.30;98.20;;;;;;5045215;28;20833;-72
2022/12/20 11:33:30;;;;;;;1.63;1.20;;;12.30;98.20;;;;;;5034852;28;20482;-71
2022/12/20 11:36:04;;;;;;;1.60;1.10;;;12.30;98.20;;;;;;5036626;28;20469;-74
2022/12/20 11:38:41;;;;;;;1.70;1.20;;;12.30;98.20;;;;;;5045025;28;20462;-71
2022/12/20 11:41:20;;;;;;;1.60;1.00;;;12.30;98.20;;;;;;5036188;28;21048;-71
2022/12/20 11:44:02;;;;;;;1.60;1.00;;;12.30;98.20;;;;;;5049015;28;20484;-72
2022/12/20 11:46:40;;;;;;;1.60;1.00;;;12.40;98.20;;;;;;5038038;28;20989;-73
2022/12/20 11:49:34;;;;;;;1.60;1.10;;;12.40;98.20;;;;;;5050530;28;20454;-72
2022/12/20 11:52:09;;;;;;;1.60;1.00;;;12.40;98.20;;;;;;5037802;28;20481;-74
2022/12/20 11:54:41;;;;;;;1.60;1.10;;;12.40;98.20;;;;;;5053988;28;20882;-71
2022/12/20 11:57:16;;;;;;;1.60;1.10;;;12.40;98.20;;;;;;5033428;28;21062;-71
2022/12/20 11:59:48;;;;;;;1.60;1.00;;;12.50;98.20;;;;;;5052305;28;20492;-72
2022/12/20 12:02:22;;;;;;;1.60;1.00;;;12.50;98.20;;;;;;5040329;28;20497;-72
2022/12/20 12:04:55;;;;;;;1.60;1.10;;;12.40;98.20;;;;;;5048055;28;20481;-71
2022/12/20 12:07:26;;;;;;;1.60;1.20;;;12.40;98.20;;;;;;5034855;28;20478;-72
2022/12/20 12:10:00;;;;;;;1.60;1.10;;;12.40;98.20;;;;;;5049284;28;20458;-71
2022/12/20 12:12:32;;;;;;;1.60;1.10;;;12.30;98.20;;;;;;5038843;28;20907;-73
2022/12/20 12:15:03;;;;;;;1.60;1.00;;;12.30;98.20;;;;;;5050367;28;20489;-73
2022/12/20 12:17:36;;;;;;;1.70;1.47;;;12.20;98.20;;;;;;5035980;28;20486;-72
2022/12/20 12:20:20;;;;;;;1.60;1.10;;;12.20;98.20;;;;;;5048472;28;20485;-71
2022/12/20 12:22:51;;;;;;;1.60;1.10;;;12.20;98.20;;;;;;5036906;28;20561;-74
2022/12/20 12:25:18;;;;;;;1.60;1.00;;;12.20;98.20;;;;;;5047943;28;20481;-71
2022/12/20 12:27:50;;;;;;;1.63;1.20;;;12.20;98.20;;;;;;5036597;28;20540;-72
2022/12/20 12:30:17;;;;;;;1.60;1.00;;;12.20;98.20;;;;;;5048092;28;20549;-73
2022/12/20 12:32:49;;;;;;;1.60;1.10;;;12.10;98.20;;;;;;5042577;28;20482;-74
2022/12/20 12:35:37;;;;;;;1.70;1.30;;;12.10;98.20;;;;;;5057294;28;20559;-73
2022/12/20 12:38:20;;;;;;;1.60;1.00;;;12.20;98.20;;;;;;5039632;28;20490;-72
2022/12/20 12:41:14;;;;;;;1.60;1.00;;;12.20;98.20;;;;;;5045066;28;20840;-73
2022/12/20 12:43:47;;;;;;;1.60;1.20;;;12.20;98.20;;;;;;5051030;28;20496;-74
2022/12/20 12:46:18;;;;;;;1.63;1.20;;;12.10;98.20;;;;;;5044444;28;20473;-74
2022/12/20 12:48:51;;;;;;;1.60;1.03;;;12.10;98.20;;;;;;5047392;28;20461;-75
2022/12/20 12:51:26;;;;;;;1.60;1.10;;;12.10;98.20;;;;;;5043040;28;20478;-74
2022/12/20 12:54:02;;;;;;;1.60;1.20;;;12.00;98.20;;;;;;5049452;28;20858;-72
2022/12/20 12:56:41;;;;;;;1.70;1.20;;;12.00;98.20;;;;;;5045455;28;20994;-74
2022/12/20 12:59:22;;;;;;;1.60;1.10;;;11.90;98.20;;;;;;5051282;28;20862;-73
2022/12/20 13:01:52;;;;;;;1.60;1.10;;;11.90;98.20;;;;;;5043632;28;20481;-73
2022/12/20 13:04:30;;;;;;;1.60;1.07;;;11.80;98.20;;;;;;5056976;28;20486;-73
2022/12/20 13:07:19;;;;;;;1.60;1.10;;;11.80;98.20;;;;;;5043151;28;20489;-73